Time;durP1;ratioP1;P1;durP2;ratioP2;P2;SDS_P1;SDS_P2;PMS_P1;PMS_P2;Temp;Humidity;BMP_temperature;BMP_pressure;BME280_temperature;BME280_humidity;BME280_pressure;Samples;Min_cycle;Max_cycle;Signal;HPM_P1;HPM_P2
2023/08/07 00:00:55;;;;;;;12.77;3.33;;;15.50;99.90;;;;;;5007853;28;37963;-78
2023/08/07 00:03:21;;;;;;;15.52;2.22;;;15.40;99.90;;;;;;5007933;28;37497;-78
2023/08/07 00:05:48;;;;;;;14.52;2.95;;;15.50;99.90;;;;;;5004329;28;36145;-77
2023/08/07 00:08:14;;;;;;;11.32;2.60;;;15.50;99.90;;;;;;4999096;28;38094;-77
2023/08/07 00:10:40;;;;;;;12.80;2.95;;;15.40;99.90;;;;;;4997290;28;37305;-77
2023/08/07 00:13:06;;;;;;;14.13;3.45;;;15.20;99.90;;;;;;5006993;28;37777;-77
2023/08/07 00:15:35;;;;;;;9.52;2.30;;;15.00;99.90;;;;;;5003126;28;37941;-77
2023/08/07 00:18:01;;;;;;;6.20;1.77;;;14.80;99.90;;;;;;5005670;28;38481;-78
2023/08/07 00:20:28;;;;;;;8.90;2.10;;;14.70;99.90;;;;;;5006775;28;38380;-77
2023/08/07 00:22:54;;;;;;;7.90;2.03;;;14.60;99.90;;;;;;5010509;28;38532;-79
2023/08/07 00:25:20;;;;;;;4.95;1.80;;;14.50;99.90;;;;;;5009586;28;36403;-78
2023/08/07 00:27:46;;;;;;;10.27;2.30;;;14.60;99.90;;;;;;5007379;28;38414;-78
2023/08/07 00:30:12;;;;;;;10.27;2.70;;;14.70;99.90;;;;;;5009717;28;38097;-77
2023/08/07 00:32:38;;;;;;;10.82;2.83;;;14.80;99.90;;;;;;5009258;28;39258;-78
2023/08/07 00:35:05;;;;;;;14.68;2.72;;;14.90;99.90;;;;;;5009346;28;37120;-77
2023/08/07 00:37:31;;;;;;;16.05;3.38;;;15.00;99.90;;;;;;5005366;28;35981;-78
2023/08/07 00:39:58;;;;;;;13.73;2.70;;;15.10;99.90;;;;;;5005808;28;37244;-79
2023/08/07 00:42:24;;;;;;;13.02;3.70;;;15.20;99.90;;;;;;5007176;28;36840;-79
2023/08/07 00:44:50;;;;;;;10.10;2.80;;;15.20;99.90;;;;;;5010963;28;36206;-78
2023/08/07 00:47:16;;;;;;;13.43;2.55;;;15.30;99.90;;;;;;5009714;28;38447;-78
2023/08/07 00:49:43;;;;;;;11.75;2.65;;;15.30;99.90;;;;;;5002906;28;37149;-78
2023/08/07 00:52:10;;;;;;;10.85;2.55;;;15.40;99.90;;;;;;5007705;28;37018;-78
2023/08/07 00:54:38;;;;;;;13.32;2.15;;;15.40;99.90;;;;;;5011408;28;36497;-78
2023/08/07 00:57:11;;;;;;;10.50;2.63;;;15.40;99.90;;;;;;5009478;28;37666;-78
2023/08/07 00:59:39;;;;;;;12.98;2.38;;;15.40;99.90;;;;;;5008047;28;38569;-77
2023/08/07 01:04:46;;;;;;;15.02;3.00;;;15.40;99.90;;;;;;5014158;28;20041;-82
2023/08/07 01:07:12;;;;;;;10.70;3.17;;;15.40;99.90;;;;;;5003239;28;38863;-82
2023/08/07 01:09:40;;;;;;;12.98;2.70;;;15.50;99.90;;;;;;5014395;28;37233;-81
2023/08/07 01:12:17;;;;;;;11.77;2.47;;;15.50;99.90;;;;;;5000358;28;38038;-81
2023/08/07 01:14:58;;;;;;;7.82;2.33;;;15.50;99.90;;;;;;5003111;28;36590;-80
2023/08/07 01:17:33;;;;;;;13.90;2.70;;;15.50;99.90;;;;;;4998665;28;38057;-80
2023/08/07 01:20:00;;;;;;;10.43;2.28;;;15.50;99.90;;;;;;5014880;28;39938;-80
2023/08/07 01:22:35;;;;;;;10.90;2.70;;;15.50;99.90;;;;;;5013489;28;37161;-80
2023/08/07 01:25:02;;;;;;;14.75;2.85;;;15.50;99.90;;;;;;5020106;28;36943;-81
2023/08/07 01:27:57;;;;;;;13.43;2.60;;;15.40;99.90;;;;;;5014129;28;47672;-79
2023/08/07 01:30:33;;;;;;;11.73;2.97;;;15.40;99.90;;;;;;5010750;28;40365;-80
2023/08/07 01:32:59;;;;;;;9.68;2.85;;;15.40;99.90;;;;;;5005652;28;41092;-80
2023/08/07 01:35:29;;;;;;;9.38;2.30;;;15.40;99.90;;;;;;5009131;28;35754;-81
2023/08/07 01:37:58;;;;;;;10.27;2.33;;;15.40;99.90;;;;;;5015828;28;37427;-82
2023/08/07 01:40:25;;;;;;;15.35;2.60;;;15.40;99.90;;;;;;5010750;28;39725;-80
2023/08/07 01:42:51;;;;;;;10.88;2.50;;;15.40;99.90;;;;;;5015965;28;37942;-81
2023/08/07 01:45:28;;;;;;;13.38;2.67;;;15.40;99.90;;;;;;4992251;28;37446;-80
2023/08/07 01:47:55;;;;;;;9.88;2.33;;;15.40;99.90;;;;;;5018377;28;37950;-80
2023/08/07 01:50:23;;;;;;;13.95;2.80;;;15.50;99.90;;;;;;5014586;28;39021;-80
2023/08/07 01:52:49;;;;;;;10.73;2.30;;;15.50;99.90;;;;;;5009388;28;38296;-80
2023/08/07 01:55:17;;;;;;;11.48;2.75;;;15.40;99.90;;;;;;5024281;28;37600;-80
2023/08/07 01:57:43;;;;;;;11.65;2.70;;;15.40;99.90;;;;;;5010618;28;38590;-81
2023/08/07 02:00:10;;;;;;;12.27;2.75;;;15.40;99.90;;;;;;5012664;28;37333;-81
2023/08/07 02:02:37;;;;;;;7.55;2.40;;;15.40;99.90;;;;;;5008837;28;36546;-79
2023/08/07 02:05:04;;;;;;;10.23;2.92;;;15.40;99.90;;;;;;5008861;28;36124;-80
2023/08/07 02:07:31;;;;;;;9.27;2.72;;;15.40;99.90;;;;;;5009197;28;46925;-80
2023/08/07 02:10:00;;;;;;;9.10;2.78;;;15.40;99.90;;;;;;5011313;28;38742;-80
2023/08/07 02:12:27;;;;;;;15.63;3.53;;;15.40;99.90;;;;;;5015287;28;37484;-81
2023/08/07 02:14:53;;;;;;;14.05;2.75;;;15.40;99.90;;;;;;5003667;28;38742;-80
2023/08/07 02:17:22;;;;;;;13.38;2.85;;;15.40;99.90;;;;;;5010270;28;37791;-81
2023/08/07 02:19:59;;;;;;;12.85;3.53;;;15.40;99.90;;;;;;4997080;28;39849;-81
2023/08/07 02:22:28;;;;;;;9.88;2.60;;;15.40;99.90;;;;;;5005463;28;38230;-80
2023/08/07 02:24:54;;;;;;;9.68;2.55;;;15.40;99.90;;;;;;5000676;28;35930;-81
2023/08/07 02:27:26;;;;;;;11.02;3.42;;;15.40;99.90;;;;;;5006005;28;39200;-81
2023/08/07 02:29:59;;;;;;;10.40;3.10;;;15.40;99.90;;;;;;5013536;28;37077;-81
2023/08/07 02:32:25;;;;;;;12.40;2.80;;;15.40;99.90;;;;;;5008553;28;37808;-81
2023/08/07 02:34:51;;;;;;;9.48;3.05;;;15.40;99.90;;;;;;5006633;28;35853;-81
2023/08/07 02:37:26;;;;;;;13.18;2.72;;;15.40;99.90;;;;;;4997704;28;38685;-81
2023/08/07 02:40:04;;;;;;;7.20;2.63;;;15.40;99.90;;;;;;5010871;28;37608;-81
2023/08/07 02:42:31;;;;;;;7.75;2.60;;;15.40;99.90;;;;;;5005442;28;38130;-81
2023/08/07 02:44:57;;;;;;;13.60;2.53;;;15.40;99.90;;;;;;5002366;28;37837;-80
2023/08/07 02:47:23;;;;;;;11.52;2.85;;;15.30;99.90;;;;;;5011157;28;38677;-80
2023/08/07 02:49:59;;;;;;;16.63;3.20;;;15.30;99.90;;;;;;5007461;28;39423;-80
2023/08/07 02:52:53;;;;;;;14.57;2.63;;;15.30;99.90;;;;;;5011765;28;37529;-80
2023/08/07 02:55:19;;;;;;;10.90;2.83;;;15.40;99.90;;;;;;5007770;28;36394;-80
2023/08/07 02:57:46;;;;;;;16.55;3.10;;;15.40;99.90;;;;;;5009724;28;38047;-80
2023/08/07 03:00:13;;;;;;;20.00;3.13;;;15.40;99.90;;;;;;5014528;28;38461;-78
2023/08/07 03:02:39;;;;;;;9.52;2.70;;;15.50;99.90;;;;;;5010278;28;37013;-81
2023/08/07 03:05:19;;;;;;;13.13;3.40;;;15.50;99.90;;;;;;5006335;28;36332;-80
2023/08/07 03:08:03;;;;;;;9.88;2.50;;;15.50;99.90;;;;;;5012310;28;39079;-81
2023/08/07 03:10:29;;;;;;;14.15;3.17;;;15.60;99.90;;;;;;5009282;28;47109;-81
2023/08/07 03:13:00;;;;;;;11.93;3.28;;;15.60;99.90;;;;;;5015088;28;37910;-81
2023/08/07 03:15:26;;;;;;;12.55;2.67;;;15.50;99.90;;;;;;5023146;28;35174;-82
2023/08/07 03:17:53;;;;;;;8.05;2.50;;;15.50;99.90;;;;;;5007335;28;38924;-80
2023/08/07 03:20:19;;;;;;;11.75;2.47;;;15.40;99.90;;;;;;5006472;28;37269;-80
2023/08/07 03:22:45;;;;;;;12.52;2.97;;;15.40;99.90;;;;;;5008381;28;37759;-80
2023/08/07 03:25:11;;;;;;;11.82;2.85;;;15.40;99.90;;;;;;5002889;28;36018;-81
2023/08/07 03:27:37;;;;;;;13.38;2.47;;;15.40;99.90;;;;;;5008166;28;38147;-80
2023/08/07 03:30:18;;;;;;;14.77;2.97;;;15.50;99.90;;;;;;5009685;28;38746;-80
2023/08/07 03:32:54;;;;;;;15.13;2.47;;;15.50;99.90;;;;;;5020111;28;48183;-80
2023/08/07 03:35:20;;;;;;;9.80;2.50;;;15.50;99.90;;;;;;5005611;28;36207;-80
2023/08/07 03:37:46;;;;;;;12.43;2.35;;;15.50;99.90;;;;;;5003476;28;37815;-80
2023/08/07 03:40:12;;;;;;;9.30;2.33;;;15.50;99.90;;;;;;5002398;28;38023;-79
2023/08/07 03:42:43;;;;;;;8.02;2.00;;;15.50;99.90;;;;;;5005230;28;37959;-80
2023/08/07 03:45:09;;;;;;;11.63;2.83;;;15.50;99.90;;;;;;5002742;28;37485;-82
2023/08/07 03:47:35;;;;;;;11.23;2.67;;;15.50;99.90;;;;;;5006239;28;40104;-80
2023/08/07 03:50:01;;;;;;;18.15;3.10;;;15.40;99.90;;;;;;5011256;28;37884;-82
2023/08/07 03:52:27;;;;;;;11.10;3.17;;;15.30;99.90;;;;;;4996878;28;37995;-80
2023/08/07 03:54:56;;;;;;;14.10;3.20;;;15.10;99.90;;;;;;5016609;28;37645;-82
2023/08/07 03:57:25;;;;;;;13.63;3.15;;;14.90;99.90;;;;;;5020678;28;39611;-80
2023/08/07 03:59:52;;;;;;;12.43;2.88;;;14.60;99.90;;;;;;5016296;28;37289;-80
2023/08/07 04:02:18;;;;;;;11.07;3.35;;;14.40;99.90;;;;;;5002158;28;37445;-80
2023/08/07 04:04:44;;;;;;;16.67;3.58;;;14.30;99.90;;;;;;5000418;28;36107;-79
2023/08/07 04:07:10;;;;;;;16.50;3.65;;;14.20;99.90;;;;;;4994832;28;40459;-79
2023/08/07 04:09:38;;;;;;;9.20;2.70;;;14.10;99.90;;;;;;5004208;28;20047;-79
2023/08/07 04:12:04;;;;;;;14.32;3.03;;;14.00;99.90;;;;;;5005119;28;37770;-81
2023/08/07 04:14:30;;;;;;;10.23;2.97;;;14.00;99.90;;;;;;5000162;28;35955;-79
2023/08/07 04:16:56;;;;;;;12.50;3.00;;;14.00;99.90;;;;;;5003258;28;39986;-80
2023/08/07 04:19:22;;;;;;;11.23;2.78;;;14.00;99.90;;;;;;4999896;28;37099;-79
2023/08/07 04:21:49;;;;;;;14.02;2.97;;;14.00;99.90;;;;;;4994104;28;38104;-79
2023/08/07 04:24:15;;;;;;;19.80;3.35;;;13.90;99.90;;;;;;4994702;28;35718;-79
2023/08/07 04:26:41;;;;;;;12.00;2.50;;;13.90;99.90;;;;;;4999059;28;38968;-79
2023/08/07 04:29:07;;;;;;;20.02;3.50;;;13.90;99.90;;;;;;4999543;28;39170;-79
2023/08/07 04:31:33;;;;;;;12.88;2.58;;;13.80;99.90;;;;;;4995673;28;36603;-79
2023/08/07 04:34:00;;;;;;;12.25;2.83;;;13.80;99.90;;;;;;4996691;28;36818;-79
2023/08/07 04:36:26;;;;;;;14.27;2.83;;;13.90;99.90;;;;;;4992320;28;37622;-81
2023/08/07 04:38:52;;;;;;;15.18;2.58;;;13.90;99.90;;;;;;5013625;28;37171;-79
2023/08/07 04:41:18;;;;;;;11.93;2.75;;;13.90;99.90;;;;;;4999380;28;39053;-80
2023/08/07 04:43:45;;;;;;;15.30;2.25;;;13.80;99.90;;;;;;5001937;28;37515;-80
2023/08/07 04:46:14;;;;;;;17.77;2.42;;;13.90;99.90;;;;;;5000366;28;37403;-79
2023/08/07 04:48:42;;;;;;;14.43;2.65;;;13.90;99.90;;;;;;5006927;28;37987;-80
2023/08/07 04:51:08;;;;;;;19.25;2.60;;;13.90;99.90;;;;;;5005776;28;36614;-81
2023/08/07 04:53:40;;;;;;;16.60;2.63;;;14.00;99.90;;;;;;5010558;28;36498;-80
2023/08/07 04:56:21;;;;;;;12.93;2.10;;;14.10;99.90;;;;;;5007237;28;37479;-81
2023/08/07 04:58:47;;;;;;;13.43;1.95;;;14.10;99.90;;;;;;5006010;28;37932;-81
2023/08/07 05:01:13;;;;;;;10.10;2.13;;;14.10;99.90;;;;;;5009076;28;37073;-80
2023/08/07 05:03:39;;;;;;;16.63;2.22;;;14.10;99.90;;;;;;5000014;28;36822;-80
2023/08/07 05:06:06;;;;;;;15.52;2.15;;;14.10;99.90;;;;;;4999240;28;39998;-80
2023/08/07 05:08:32;;;;;;;8.70;2.33;;;14.20;99.90;;;;;;5019332;28;37767;-81
2023/08/07 05:11:04;;;;;;;15.88;2.15;;;14.30;99.90;;;;;;5010341;28;36690;-80
2023/08/07 05:13:30;;;;;;;16.67;2.33;;;14.30;99.90;;;;;;5009390;28;47424;-80
2023/08/07 05:15:56;;;;;;;13.40;2.55;;;14.30;99.90;;;;;;5009161;28;38114;-79
2023/08/07 05:18:22;;;;;;;14.07;2.95;;;14.40;99.90;;;;;;5436479;22;40672;-82
2023/08/07 05:20:48;;;;;;;13.60;2.58;;;14.40;99.90;;;;;;5016929;28;36790;-80
2023/08/07 05:28:29;;;;;;;14.18;2.17;;;14.70;99.90;;;;;;5369731;23;20044;-82
2023/08/07 05:31:21;;;;;;;9.30;2.10;;;14.70;99.90;;;;;;4996451;28;36986;-81
2023/08/07 05:34:20;;;;;;;20.75;3.17;;;14.70;99.90;;;;;;5013025;28;50409;-82
2023/08/07 05:36:47;;;;;;;13.15;2.30;;;14.70;99.90;;;;;;4986459;28;40195;-81
2023/08/07 05:39:35;;;;;;;17.95;3.70;;;14.80;99.90;;;;;;5019949;28;38287;-80
2023/08/07 05:47:34;;;;;;;12.52;1.88;;;15.10;99.90;;;;;;5116788;22;40651;-80
2023/08/07 05:50:01;;;;;;;12.82;2.20;;;15.10;99.90;;;;;;4999189;28;39353;-79
2023/08/07 05:52:29;;;;;;;13.35;2.30;;;15.10;99.90;;;;;;4999367;28;36458;-81
2023/08/07 05:54:55;;;;;;;14.50;2.20;;;15.10;99.90;;;;;;5000788;28;37539;-80
2023/08/07 05:57:21;;;;;;;19.02;3.47;;;15.00;99.90;;;;;;5000737;28;37768;-81
2023/08/07 05:59:47;;;;;;;15.85;2.45;;;14.90;99.90;;;;;;5000711;28;38647;-80
2023/08/07 06:02:14;;;;;;;9.02;1.85;;;15.00;99.90;;;;;;4999415;28;36756;-81
2023/08/07 06:04:40;;;;;;;12.07;2.10;;;15.10;99.90;;;;;;4999964;28;37023;-78
2023/08/07 06:07:07;;;;;;;16.60;2.60;;;15.00;99.90;;;;;;4997651;28;38805;-78
2023/08/07 06:09:33;;;;;;;14.38;2.30;;;15.00;99.90;;;;;;5000354;28;36858;-80
2023/08/07 06:11:59;;;;;;;13.13;2.50;;;15.00;99.90;;;;;;4999604;28;36813;-80
2023/08/07 06:14:25;;;;;;;17.30;2.78;;;15.10;99.90;;;;;;5004793;28;36273;-79
2023/08/07 06:16:52;;;;;;;13.82;2.00;;;15.10;99.90;;;;;;5013897;28;37819;-79
2023/08/07 06:19:19;;;;;;;19.45;2.47;;;15.20;99.90;;;;;;5011987;28;38280;-81
2023/08/07 06:23:03;;;;;;;7.95;2.13;;;15.20;99.90;;;;;;5017951;28;36995;-81
2023/08/07 06:28:26;;;;;;;10.90;1.80;;;15.50;99.90;;;;;;5383842;23;20045;-80
2023/08/07 06:30:52;;;;;;;8.25;2.28;;;15.60;99.90;;;;;;5017837;28;39959;-80
2023/08/07 06:48:01;;;;;;;10.35;1.83;;;16.10;94.90;;;;;;5042712;23;39156;-80
2023/08/07 06:50:28;;;;;;;8.10;1.92;;;16.30;92.50;;;;;;5023014;28;39103;-80
2023/08/07 06:52:54;;;;;;;8.43;1.98;;;16.40;88.50;;;;;;5027854;28;39447;-80
2023/08/07 06:55:22;;;;;;;8.57;2.70;;;16.50;89.70;;;;;;5022434;28;36729;-80
2023/08/07 06:57:49;;;;;;;9.32;1.92;;;16.60;87.90;;;;;;5029108;28;36228;-80
2023/08/07 07:00:17;;;;;;;8.50;1.90;;;16.70;84.10;;;;;;5025860;28;36491;-80
2023/08/07 07:05:21;;;;;;;9.45;1.88;;;16.90;70.80;;;;;;4994104;28;20043;-79
2023/08/07 07:07:47;;;;;;;9.00;1.90;;;17.00;65.50;;;;;;4989428;28;36006;-79
2023/08/07 07:10:13;;;;;;;5.70;1.60;;;17.00;74.60;;;;;;4993150;28;37380;-79
2023/08/07 07:12:39;;;;;;;6.05;2.30;;;17.00;72.80;;;;;;5001826;28;38716;-80
2023/08/07 07:15:06;;;;;;;12.32;1.77;;;17.00;83.10;;;;;;5021326;28;37809;-80
2023/08/07 07:17:32;;;;;;;8.93;2.30;;;17.10;71.40;;;;;;5025956;28;36490;-79
2023/08/07 07:20:29;;;;;;;8.77;2.00;;;17.20;46.70;;;;;;5026443;28;40392;-82
2023/08/07 07:23:42;;;;;;;6.60;1.58;;;17.40;71.20;;;;;;5121179;22;39792;-83
2023/08/07 07:26:24;;;;;;;8.73;1.75;;;17.60;42.70;;;;;;5033921;28;20049;-79
2023/08/07 07:28:51;;;;;;;4.53;1.75;;;17.50;36.50;;;;;;5035080;28;38516;-79
2023/08/07 07:31:17;;;;;;;6.30;1.77;;;17.30;38.20;;;;;;5038297;28;38198;-80
2023/08/07 07:33:43;;;;;;;9.73;1.70;;;17.20;52.80;;;;;;5040929;28;37285;-80
2023/08/07 07:36:17;;;;;;;11.00;1.77;;;16.90;62.40;;;;;;5045869;28;38091;-80
2023/08/07 07:38:45;;;;;;;9.48;1.80;;;16.90;66.30;;;;;;5034750;28;35877;-79
2023/08/07 07:41:14;;;;;;;5.60;1.23;;;17.20;66.00;;;;;;5039298;28;38440;-79
2023/08/07 07:43:41;;;;;;;9.07;1.85;;;17.60;54.70;;;;;;5039203;28;38195;-79
2023/08/07 07:46:07;;;;;;;10.10;1.65;;;17.80;61.80;;;;;;5032666;28;36829;-79
2023/08/07 07:48:33;;;;;;;14.52;2.25;;;18.00;47.10;;;;;;5028202;28;36415;-79
2023/08/07 07:51:01;;;;;;;7.97;1.85;;;17.80;48.70;;;;;;5024869;28;37620;-79
2023/08/07 07:53:28;;;;;;;9.25;1.85;;;17.90;57.00;;;;;;5027327;28;37606;-80
2023/08/07 07:55:54;;;;;;;9.30;2.45;;;18.10;51.20;;;;;;5032091;28;36401;-80
2023/08/07 07:58:21;;;;;;;10.93;1.55;;;18.20;35.70;;;;;;5032038;28;35967;-79
2023/08/07 08:00:48;;;;;;;9.50;2.03;;;18.20;48.80;;;;;;5035131;28;38360;-79
2023/08/07 08:03:15;;;;;;;6.00;1.80;;;18.30;39.00;;;;;;5029388;28;37227;-80
2023/08/07 08:05:41;;;;;;;11.93;1.85;;;18.20;27.10;;;;;;5027918;28;36681;-79
2023/08/07 08:08:07;;;;;;;8.27;1.70;;;17.80;15.00;;;;;;5029863;28;36963;-80
2023/08/07 08:10:34;;;;;;;7.95;1.42;;;17.50;31.40;;;;;;5027030;28;38818;-79
2023/08/07 08:13:00;;;;;;;7.20;1.80;;;17.40;26.00;;;;;;5035090;28;38016;-79
2023/08/07 08:15:26;;;;;;;9.73;2.05;;;17.40;37.60;;;;;;5044460;28;39125;-80
2023/08/07 08:17:56;;;;;;;6.15;1.73;;;17.30;40.20;;;;;;5041866;28;39185;-80
2023/08/07 08:20:23;;;;;;;7.85;1.80;;;17.20;39.90;;;;;;5051519;28;38303;-80
2023/08/07 08:22:49;;;;;;;10.40;2.00;;;17.50;42.00;;;;;;5041610;28;37570;-80
2023/08/07 08:25:17;;;;;;;9.80;2.00;;;17.90;51.30;;;;;;5041210;28;36555;-80
2023/08/07 08:27:43;;;;;;;8.98;1.55;;;18.00;43.50;;;;;;5045961;28;37212;-81
2023/08/07 08:30:15;;;;;;;11.80;2.03;;;18.00;37.70;;;;;;5045098;28;39388;-79
2023/08/07 08:32:44;;;;;;;7.82;1.75;;;18.10;30.70;;;;;;5046324;28;37938;-79
2023/08/07 08:35:11;;;;;;;9.73;2.10;;;18.10;37.70;;;;;;5050225;28;38698;-80
2023/08/07 08:37:37;;;;;;;9.85;2.10;;;18.30;47.10;;;;;;5045607;28;37975;-80
2023/08/07 08:40:11;;;;;;;11.02;1.50;;;18.50;47.40;;;;;;5041144;28;39256;-78
2023/08/07 08:42:42;;;;;;;11.10;1.95;;;18.80;20.20;;;;;;5045976;28;47303;-78
2023/08/07 08:45:20;;;;;;;7.97;2.13;;;18.60;14.20;;;;;;5053730;28;38445;-80
2023/08/07 08:47:49;;;;;;;7.75;1.67;;;18.50;25.80;;;;;;5056909;28;39555;-79
2023/08/07 08:50:24;;;;;;;7.93;2.20;;;18.30;20.20;;;;;;5064543;28;37799;-80
2023/08/07 08:52:53;;;;;;;6.55;1.60;;;18.40;33.20;;;;;;5047378;28;38304;-80
2023/08/07 08:55:21;;;;;;;7.45;1.75;;;18.80;31.60;;;;;;5047752;28;37147;-81
2023/08/07 08:57:48;;;;;;;6.72;1.60;;;19.00;7.40;;;;;;5057475;28;36357;-80
2023/08/07 09:00:20;;;;;;;6.20;1.73;;;19.20;11.70;;;;;;5058311;28;39365;-80
2023/08/07 09:02:50;;;;;;;;;;;19.30;1.00;;;;;;5040205;28;46966;-80
2023/08/07 09:05:19;;;;;;;10.13;1.80;;;18.90;16.70;;;;;;5036799;28;36825;-80
2023/08/07 09:07:48;;;;;;;10.13;2.00;;;18.30;50.20;;;;;;5046167;28;36963;-80
2023/08/07 09:10:16;;;;;;;11.50;2.78;;;18.20;35.50;;;;;;5042812;28;37812;-79
2023/08/07 09:13:01;;;;;;;10.18;2.20;;;18.00;52.10;;;;;;5046151;28;37262;-79
2023/08/07 09:15:30;;;;;;;5.32;1.73;;;18.20;52.10;;;;;;5043235;28;46390;-80
2023/08/07 09:17:57;;;;;;;6.65;1.83;;;18.30;20.00;;;;;;5046980;28;36119;-80
2023/08/07 09:20:24;;;;;;;6.22;2.08;;;18.70;25.00;;;;;;5043688;28;38826;-81
2023/08/07 09:22:51;;;;;;;11.32;1.85;;;19.00;20.50;;;;;;5044129;28;37369;-79
2023/08/07 09:25:34;;;;;;;5.93;1.90;;;19.20;17.40;;;;;;5046006;28;37450;-80
2023/08/07 09:28:05;;;;;;;7.45;1.90;;;19.40;19.90;;;;;;5045704;28;36453;-80
2023/08/07 09:30:36;;;;;;;5.97;1.50;;;19.50;5.90;;;;;;5039527;28;46741;-80
2023/08/07 09:33:03;;;;;;;6.10;1.60;;;19.60;23.00;;;;;;5038637;28;37742;-79
2023/08/07 09:35:31;;;;;;;7.65;1.90;;;19.40;1.00;;;;;;5038387;28;37160;-79
2023/08/07 09:38:00;;;;;;;10.07;2.05;;;19.40;8.60;;;;;;5034946;28;36067;-79
2023/08/07 09:40:29;;;;;;;8.75;2.17;;;19.40;7.30;;;;;;5183838;22;48758;-81
2023/08/07 09:42:55;;;;;;;7.90;1.90;;;19.30;22.50;;;;;;5038377;28;39469;-79
2023/08/07 09:45:23;;;;;;;7.07;2.22;;;18.80;38.50;;;;;;5036976;28;37829;-79
2023/08/07 09:48:11;;;;;;;8.23;1.92;;;19.00;37.50;;;;;;5037013;28;37204;-79
2023/08/07 09:50:37;;;;;;;7.80;1.83;;;19.50;45.10;;;;;;5040457;28;47456;-79
2023/08/07 09:53:03;;;;;;;5.10;1.77;;;19.80;5.80;;;;;;5034806;28;36972;-78
2023/08/07 09:55:31;;;;;;;6.78;1.83;;;19.80;1.00;;;;;;5044766;28;36215;-78
2023/08/07 09:57:57;;;;;;;7.40;1.85;;;19.50;6.80;;;;;;5042378;28;37923;-80
2023/08/07 10:00:23;;;;;;;7.43;2.03;;;19.20;17.60;;;;;;5031927;28;38908;-79
2023/08/07 10:02:50;;;;;;;4.63;2.10;;;18.90;23.60;;;;;;5042584;28;38559;-79
2023/08/07 10:05:17;;;;;;;5.22;1.40;;;19.40;29.70;;;;;;5032677;28;36981;-79
2023/08/07 10:07:44;;;;;;;6.03;1.75;;;19.80;1.00;;;;;;5035571;28;37355;-79
2023/08/07 10:10:11;;;;;;;6.68;1.90;;;19.90;1.00;;;;;;5039100;28;36981;-78
2023/08/07 10:15:34;;;;;;;5.13;1.52;;;20.00;5.30;;;;;;5214585;23;20054;-80
2023/08/07 10:18:02;;;;;;;7.25;2.58;;;19.90;1.00;;;;;;4998042;28;37520;-80
2023/08/07 10:20:43;;;;;;;6.38;2.00;;;19.70;2.20;;;;;;4979031;28;46766;-79
2023/08/07 10:23:15;;;;;;;7.32;3.10;;;20.00;6.00;;;;;;5008274;28;39716;-80
2023/08/07 10:25:43;;;;;;;4.95;1.77;;;20.00;1.00;;;;;;4989747;28;37408;-79
2023/08/07 10:28:14;;;;;;;7.80;1.83;;;19.60;9.40;;;;;;4992972;28;35995;-79
2023/08/07 10:30:41;;;;;;;10.25;2.17;;;19.70;16.60;;;;;;4979695;28;37986;-81
2023/08/07 10:33:09;;;;;;;6.88;2.65;;;19.90;1.00;;;;;;4994574;28;38987;-79
2023/08/07 11:04:19;;;;;;;7.15;1.90;;;20.70;1.00;;;;;;5754148;23;20048;-83
2023/08/07 11:06:53;;;;;;;9.82;2.72;;;20.70;1.00;;;;;;5327857;23;38132;-80
2023/08/07 11:10:05;;;;;;;7.35;2.13;;;20.80;1.00;;;;;;5534422;23;35683;-82
2023/08/07 11:18:02;;;;;;;5.20;1.90;;;20.80;1.00;;;;;;5427339;23;20247;-80
2023/08/07 11:20:28;;;;;;;8.35;2.30;;;20.00;1.00;;;;;;5014828;28;48928;-79
2023/08/07 11:23:30;;;;;;;6.28;1.77;;;20.00;1.00;;;;;;5006361;28;37546;-79
2023/08/07 11:34:19;;;;;;;11.30;2.33;;;19.80;1.00;;;;;;5452200;22;20033;-81
2023/08/07 11:43:09;;;;;;;10.43;2.08;;;18.80;1.00;;;;;;5850691;23;20050;-80
2023/08/07 11:45:39;;;;;;;7.05;2.33;;;18.60;1.00;;;;;;5050433;28;39504;-80
2023/08/07 11:48:54;;;;;;;3.50;1.65;;;18.40;1.00;;;;;;5019861;28;39591;-81
2023/08/07 11:57:22;;;;;;;10.77;2.88;;;18.40;94.60;;;;;;5628042;22;20218;-80
2023/08/07 12:00:17;;;;;;;7.57;2.97;;;18.30;97.30;;;;;;5044963;28;38758;-80
2023/08/07 12:02:57;;;;;;;6.05;2.35;;;18.30;99.90;;;;;;5056694;28;37881;-81
2023/08/07 12:05:38;;;;;;;6.05;1.88;;;18.00;99.90;;;;;;5054250;28;38686;-81
2023/08/07 12:08:07;;;;;;;6.03;2.38;;;17.80;99.90;;;;;;5048339;28;39358;-79
2023/08/07 12:10:37;;;;;;;7.45;2.40;;;17.40;99.90;;;;;;5027767;28;38697;-81
2023/08/07 12:13:52;;;;;;;5.55;2.10;;;17.10;99.90;;;;;;5035031;28;39077;-81
2023/08/07 12:16:19;;;;;;;5.78;2.40;;;17.10;99.90;;;;;;5048086;28;38288;-80
2023/08/07 12:25:31;;;;;;;7.57;2.65;;;17.10;99.90;;;;;;5048753;28;39547;-81
2023/08/07 12:28:30;;;;;;;6.07;2.20;;;17.00;99.90;;;;;;5048316;28;38701;-80
2023/08/07 12:31:19;;;;;;;9.88;2.30;;;17.00;99.90;;;;;;5044150;28;50163;-81
2023/08/07 12:33:56;;;;;;;7.80;2.45;;;16.90;99.90;;;;;;5036099;28;48531;-81
2023/08/07 12:36:26;;;;;;;5.30;2.08;;;17.00;99.90;;;;;;5028530;28;37768;-81
2023/08/07 12:38:54;;;;;;;6.50;2.03;;;17.00;99.90;;;;;;4994088;28;36082;-81
2023/08/07 12:41:35;;;;;;;3.53;1.75;;;17.20;99.90;;;;;;5024956;28;39820;-80
2023/08/07 13:01:25;;;;;;;1.80;1.35;;;19.40;1.00;;;;;;5627846;23;20040;-81
2023/08/07 13:06:59;;;;;;;2.95;1.65;;;19.90;1.00;;;;;;5043303;28;20042;-81
2023/08/07 13:33:27;;;;;;;3.03;1.40;;;20.30;1.00;;;;;;5040109;28;20044;-80
2023/08/07 13:36:03;;;;;;;2.13;1.15;;;20.50;1.00;;;;;;5052239;28;38887;-80
2023/08/07 13:38:30;;;;;;;4.35;1.40;;;20.70;1.00;;;;;;5050048;28;49111;-80
2023/08/07 13:40:56;;;;;;;2.97;1.73;;;20.30;1.00;;;;;;5050775;28;36956;-79
2023/08/07 13:43:24;;;;;;;2.75;1.33;;;19.90;1.00;;;;;;5052136;28;36212;-79
2023/08/07 13:45:53;;;;;;;5.07;1.75;;;19.60;1.00;;;;;;5049932;28;37569;-80
2023/08/07 13:48:29;;;;;;;4.20;1.25;;;19.70;5.60;;;;;;5129885;23;40989;-80
2023/08/07 13:51:51;;;;;;;;;;;20.10;1.00;;;;;;5026456;28;39038;-81
2023/08/07 14:17:55;;;;;;;1.38;1.00;;;20.30;1.00;;;;;;5629520;23;19905;-81
2023/08/07 14:21:08;;;;;;;2.97;1.23;;;20.30;1.00;;;;;;5037864;28;38197;-81
2023/08/07 14:46:58;;;;;;;2.55;1.10;;;20.60;1.00;;;;;;5617732;23;20036;-80
2023/08/07 14:49:36;;;;;;;1.92;0.80;;;20.80;1.00;;;;;;5059088;28;39128;-80
2023/08/07 14:54:58;;;;;;;1.55;0.65;;;21.00;1.00;;;;;;5362627;22;20037;-81
2023/08/07 15:00:01;;;;;;;2.22;0.85;;;21.00;1.00;;;;;;5671266;23;20043;-81
2023/08/07 15:02:27;;;;;;;1.67;0.85;;;20.70;1.00;;;;;;5009872;28;38239;-80
2023/08/07 15:04:53;;;;;;;3.78;0.95;;;20.30;1.00;;;;;;5016545;28;37885;-81
2023/08/07 15:07:32;;;;;;;4.05;1.10;;;20.10;1.00;;;;;;5055269;22;37354;-82
2023/08/07 15:12:44;;;;;;;2.47;0.80;;;20.30;1.00;;;;;;5074925;23;20030;-79
2023/08/07 15:15:11;;;;;;;5.88;0.80;;;20.30;1.00;;;;;;5446316;23;37833;-79
2023/08/07 15:17:38;;;;;;;1.42;0.68;;;20.40;1.00;;;;;;5032069;28;37752;-78
2023/08/07 15:20:08;;;;;;;2.50;0.88;;;20.50;1.00;;;;;;5016910;28;38621;-80
2023/08/07 15:22:34;;;;;;;2.85;0.95;;;20.60;1.00;;;;;;5133971;22;49711;-80
2023/08/07 15:25:02;;;;;;;2.55;0.90;;;20.50;1.00;;;;;;5085665;23;38033;-81
2023/08/07 15:27:28;;;;;;;4.40;1.00;;;20.30;1.00;;;;;;5153342;23;37176;-81
2023/08/07 15:30:07;;;;;;;3.60;0.80;;;19.90;1.00;;;;;;5007943;28;38510;-82
2023/08/07 15:32:34;;;;;;;2.50;1.02;;;19.70;16.30;;;;;;5765245;23;38422;-81
2023/08/07 15:35:00;;;;;;;2.55;1.17;;;20.00;1.00;;;;;;5466740;23;36455;-80
2023/08/07 15:37:27;;;;;;;3.75;1.20;;;20.10;1.00;;;;;;5015001;28;37371;-80
2023/08/07 15:39:54;;;;;;;2.22;0.90;;;19.90;1.00;;;;;;5318982;23;39083;-79
2023/08/07 15:42:21;;;;;;;3.17;1.23;;;19.60;1.00;;;;;;5028528;28;38005;-80
2023/08/07 15:44:47;;;;;;;2.53;1.13;;;19.40;12.80;;;;;;5278129;22;38933;-80
2023/08/07 15:47:16;;;;;;;3.67;1.20;;;19.50;22.30;;;;;;5049229;28;38525;-79
2023/08/07 15:49:48;;;;;;;3.53;1.30;;;19.40;4.60;;;;;;5044634;28;39566;-80
2023/08/07 15:52:21;;;;;;;3.15;1.23;;;19.60;1.00;;;;;;5045551;28;39641;-80
2023/08/07 15:54:47;;;;;;;3.72;1.35;;;19.60;6.60;;;;;;5080749;22;37819;-79
2023/08/07 15:57:15;;;;;;;2.65;1.10;;;19.60;1.00;;;;;;5045053;28;37018;-80
2023/08/07 15:59:51;;;;;;;2.70;1.00;;;19.40;8.00;;;;;;5036270;28;38135;-80
2023/08/07 16:02:18;;;;;;;1.67;1.00;;;19.40;6.00;;;;;;5038234;28;39090;-80
2023/08/07 16:04:44;;;;;;;2.22;0.90;;;19.50;1.00;;;;;;5036668;28;38391;-80
2023/08/07 16:07:10;;;;;;;2.40;1.10;;;19.70;9.90;;;;;;5027415;28;37296;-80
2023/08/07 16:09:36;;;;;;;2.53;1.10;;;19.80;28.70;;;;;;5029547;28;38950;-80
2023/08/07 16:12:04;;;;;;;1.65;1.08;;;19.70;1.00;;;;;;5032382;28;37360;-80
2023/08/07 16:14:33;;;;;;;2.35;1.00;;;19.70;9.30;;;;;;5033337;28;38101;-79
2023/08/07 16:22:28;;;;;;;1.65;1.00;;;19.50;1.00;;;;;;5688941;22;20226;-81
2023/08/07 16:24:57;;;;;;;4.40;1.25;;;19.50;1.00;;;;;;5304348;23;37408;-81